Time;durP1;ratioP1;P1;durP2;ratioP2;P2;SDS_P1;SDS_P2;PMS_P1;PMS_P2;Temp;Humidity;BMP_temperature;BMP_pressure;BME280_temperature;BME280_humidity;BME280_pressure;Samples;Min_cycle;Max_cycle;Signal;HPM_P1;HPM_P2
2022/08/31 00:05:06;;;;;;;12.50;8.20;;;;;;;14.51;100.00;99330.02;1749594;81;21046;-71
2022/08/31 00:07:34;;;;;;;13.20;7.42;;;;;;;14.47;100.00;99325.72;1750255;81;21154;-71
2022/08/31 00:10:12;;;;;;;21.80;8.25;;;;;;;14.52;100.00;99324.87;1749667;81;21503;-71
2022/08/31 00:12:34;;;;;;;13.03;7.70;;;;;;;14.51;100.00;99324.06;1751071;80;21030;-71
2022/08/31 00:15:01;;;;;;;13.40;8.23;;;;;;;14.50;100.00;99325.17;1735293;80;21547;-71
2022/08/31 00:17:28;;;;;;;19.35;7.33;;;;;;;14.49;100.00;99328.14;1739854;80;20856;-70
2022/08/31 00:19:54;;;;;;;9.70;7.33;;;;;;;14.48;100.00;99325.20;1753089;80;21517;-70
2022/08/31 00:22:21;;;;;;;13.83;8.38;;;;;;;14.45;100.00;99318.99;1747805;81;21010;-70
2022/08/31 00:24:48;;;;;;;14.90;8.68;;;;;;;14.49;100.00;99320.05;1742654;80;20966;-71
2022/08/31 00:27:15;;;;;;;11.50;7.03;;;;;;;14.48;100.00;99327.34;1753103;81;20935;-70
2022/08/31 00:29:42;;;;;;;17.35;7.80;;;;;;;14.45;100.00;99321.14;1753133;80;20963;-70
2022/08/31 00:32:09;;;;;;;13.80;7.53;;;;;;;14.45;100.00;99318.99;1747864;80;21195;-71
2022/08/31 00:34:36;;;;;;;11.80;7.55;;;;;;;14.48;100.00;99325.20;1747227;80;20859;-70
2022/08/31 00:37:04;;;;;;;10.63;7.60;;;;;;;14.45;100.00;99326.55;1742421;80;20998;-71
2022/08/31 00:39:31;;;;;;;19.48;8.33;;;;;;;14.41;100.00;99330.13;1747439;81;20942;-70
2022/08/31 00:41:58;;;;;;;13.75;7.60;;;;;;;14.34;100.00;99330.45;1747724;80;20868;-70
2022/08/31 00:44:24;;;;;;;10.93;7.53;;;;;;;14.34;100.00;99328.55;1752623;81;21240;-71
2022/08/31 00:46:51;;;;;;;18.10;8.03;;;;;;;14.34;100.00;99337.99;1752993;81;20942;-70
2022/08/31 00:49:23;;;;;;;11.00;7.25;;;;;;;14.31;100.00;99335.07;1753049;81;20903;-71
2022/08/31 00:52:13;;;;;;;11.38;7.60;;;;;;;14.25;100.00;99327.54;1749453;81;20911;-71
2022/08/31 00:54:45;;;;;;;11.18;8.05;;;;;;;14.17;100.00;99325.45;1750006;81;21031;-70
2022/08/31 00:57:12;;;;;;;13.03;8.80;;;;;;;14.12;100.00;99326.85;1757576;81;22071;-70
2022/08/31 00:59:41;;;;;;;13.22;8.63;;;;;;;14.06;100.00;99331.49;1731457;80;20923;-70
2022/08/31 01:02:08;;;;;;;10.98;7.50;;;;;;;14.01;100.00;99324.77;1715886;82;21731;-71
2022/08/31 01:04:35;;;;;;;12.68;8.58;;;;;;;13.99;100.00;99329.66;1751208;80;20903;-71
2022/08/31 01:07:03;;;;;;;10.93;7.87;;;;;;;13.99;100.00;99318.87;1752995;80;20923;-71
2022/08/31 01:09:34;;;;;;;11.73;7.45;;;;;;;13.94;100.00;99325.10;1753001;81;21273;-71
2022/08/31 01:12:02;;;;;;;12.78;8.58;;;;;;;13.89;100.00;99324.31;1747249;80;20970;-71
2022/08/31 01:14:30;;;;;;;12.37;7.97;;;;;;;13.87;100.00;99324.61;1745966;80;20867;-71
2022/08/31 01:16:57;;;;;;;10.60;7.67;;;;;;;13.87;100.00;99327.31;1741204;80;21442;-71
2022/08/31 01:19:41;;;;;;;11.73;8.13;;;;;;;13.87;100.00;99327.31;1745651;80;20966;-71
2022/08/31 01:22:34;;;;;;;16.27;9.05;;;;;;;13.89;100.00;99327.02;1710410;81;21280;-71
2022/08/31 01:25:02;;;;;;;10.70;8.28;;;;;;;13.89;100.00;99325.14;1744921;81;20958;-71
2022/08/31 01:27:32;;;;;;;12.45;8.70;;;;;;;13.88;100.00;99322.16;1750393;82;20868;-71
2022/08/31 01:30:01;;;;;;;12.70;8.35;;;;;;;13.86;100.00;99321.63;1723594;80;20918;-71
2022/08/31 01:32:28;;;;;;;11.53;8.88;;;;;;;13.85;100.00;99329.48;1742262;80;20835;-71
2022/08/31 01:34:55;;;;;;;14.63;8.33;;;;;;;13.90;100.00;99328.64;1737381;80;21154;-70
2022/08/31 01:37:22;;;;;;;11.75;8.68;;;;;;;13.93;100.00;99330.77;1741653;80;20990;-70
2022/08/31 01:39:49;;;;;;;16.37;9.48;;;;;;;13.92;100.00;99336.72;1746604;80;20891;-71
2022/08/31 01:42:17;;;;;;;15.05;9.25;;;;;;;13.92;100.00;99339.41;1746444;81;21406;-71
2022/08/31 01:44:46;;;;;;;13.58;9.23;;;;;;;13.88;100.00;99326.21;1752135;81;20868;-71
2022/08/31 01:47:13;;;;;;;16.40;8.13;;;;;;;13.86;100.00;99333.77;1746775;81;21266;-71
2022/08/31 01:49:39;;;;;;;14.40;9.10;;;;;;;13.81;100.00;99337.86;1739239;80;20869;-70
2022/08/31 01:52:06;;;;;;;10.93;8.33;;;;;;;13.76;100.00;99327.66;1747791;82;20836;-71
2022/08/31 01:54:33;;;;;;;9.40;7.67;;;;;;;13.76;100.00;99324.41;1752237;82;21437;-70
2022/08/31 01:57:00;;;;;;;9.53;7.97;;;;;;;13.78;100.00;99325.48;1752182;82;20891;-71
2022/08/31 01:59:29;;;;;;;13.88;8.80;;;;;;;13.79;100.00;99322.52;1698847;81;22173;-71
2022/08/31 02:02:07;;;;;;;13.15;8.70;;;;;;;13.76;100.00;99324.95;1709988;82;20937;-70
2022/08/31 02:04:36;;;;;;;10.70;8.15;;;;;;;13.73;100.00;99326.33;1746208;81;21581;-70
2022/08/31 02:07:02;;;;;;;12.68;8.45;;;;;;;13.69;100.00;99318.00;1751099;82;21445;-71
2022/08/31 02:09:30;;;;;;;11.95;7.70;;;;;;;13.70;100.00;99314.75;1752373;82;20891;-70
2022/08/31 02:11:58;;;;;;;11.68;8.65;;;;;;;13.68;100.00;99317.72;1740895;80;22202;-70
2022/08/31 02:14:25;;;;;;;12.95;8.03;;;;;;;13.68;100.00;99314.22;1752238;80;20878;-70
2022/08/31 02:16:53;;;;;;;13.03;8.88;;;;;;;13.67;100.00;99308.55;1750823;81;20965;-71
2022/08/31 02:19:20;;;;;;;9.20;7.78;;;;;;;13.66;100.00;99315.04;1751148;81;20890;-70
2022/08/31 02:21:46;;;;;;;11.12;7.65;;;;;;;13.62;100.00;99311.28;1752788;81;20926;-71
2022/08/31 02:24:13;;;;;;;11.88;8.13;;;;;;;13.58;100.00;99307.55;1751090;81;21154;-71
2022/08/31 02:26:40;;;;;;;11.20;8.40;;;;;;;13.57;100.00;99309.45;1752522;80;21420;-70
2022/08/31 02:29:08;;;;;;;10.13;8.48;;;;;;;13.58;100.00;99311.05;1751629;80;20902;-71
2022/08/31 02:31:35;;;;;;;12.25;8.75;;;;;;;13.57;100.00;99309.45;1751883;81;21030;-70
2022/08/31 02:34:02;;;;;;;16.48;9.38;;;;;;;13.54;100.00;99316.73;1751954;80;20985;-70
2022/08/31 02:36:31;;;;;;;12.15;9.00;;;;;;;13.53;100.00;99311.62;1753373;81;21258;-70
2022/08/31 02:38:59;;;;;;;13.22;9.10;;;;;;;13.49;100.00;99315.41;1751243;80;20890;-70
2022/08/31 02:41:27;;;;;;;14.95;9.28;;;;;;;13.44;100.00;99313.55;1754666;80;20970;-70
2022/08/31 02:43:54;;;;;;;15.25;8.75;;;;;;;13.35;100.00;99312.54;1753798;81;20918;-71
2022/08/31 02:46:22;;;;;;;12.37;8.93;;;;;;;13.31;100.00;99313.37;1752039;80;20988;-70
2022/08/31 02:48:50;;;;;;;11.05;8.58;;;;;;;13.26;100.00;99310.13;1752322;80;20964;-70
2022/08/31 02:51:18;;;;;;;18.70;8.80;;;;;;;13.21;100.00;99315.54;1751965;80;21476;-70
2022/08/31 02:53:46;;;;;;;11.55;8.33;;;;;;;13.17;100.00;99311.23;1752190;80;21013;-69
2022/08/31 02:56:14;;;;;;;12.78;8.83;;;;;;;13.13;100.00;99309.36;1753357;81;20985;-70
2022/08/31 02:58:41;;;;;;;15.48;8.45;;;;;;;13.15;100.00;99312.59;1753622;81;21088;-70
2022/08/31 03:01:08;;;;;;;9.68;8.33;;;;;;;13.11;100.00;99306.16;1750946;80;21952;-70
2022/08/31 03:03:36;;;;;;;10.53;8.45;;;;;;;13.12;100.00;99312.60;1751225;80;20930;-70
2022/08/31 03:06:04;;;;;;;15.70;8.50;;;;;;;13.12;100.00;99313.15;1750078;80;20934;-71
2022/08/31 03:08:31;;;;;;;11.50;8.55;;;;;;;13.06;100.00;99314.52;1714652;82;20988;-71
2022/08/31 03:10:59;;;;;;;13.65;8.60;;;;;;;13.06;100.00;99313.72;1748829;80;20902;-71
2022/08/31 03:13:26;;;;;;;10.48;8.85;;;;;;;13.06;100.00;99311.02;1710321;82;21227;-71
2022/08/31 03:15:53;;;;;;;13.18;8.85;;;;;;;13.02;100.00;99309.95;1752824;81;21465;-71
2022/08/31 03:18:20;;;;;;;13.72;9.40;;;;;;;13.02;100.00;99312.10;1748228;80;20904;-70
2022/08/31 03:20:47;;;;;;;13.75;9.78;;;;;;;13.03;100.00;99315.08;1748039;80;20879;-70
2022/08/31 03:23:14;;;;;;;11.95;8.45;;;;;;;13.04;100.00;99316.67;1747472;80;21022;-70
2022/08/31 03:25:41;;;;;;;17.52;9.33;;;;;;;13.04;100.00;99311.30;1746983;80;21283;-70
2022/08/31 03:28:10;;;;;;;8.55;7.65;;;;;;;13.11;100.00;99316.39;1750837;81;21412;-70
2022/08/31 03:30:39;;;;;;;9.95;8.50;;;;;;;13.14;100.00;99317.17;1717425;82;21443;-69
2022/08/31 03:33:07;;;;;;;9.73;7.72;;;;;;;13.20;100.00;99318.75;1742666;80;20899;-68
2022/08/31 03:35:34;;;;;;;10.72;8.33;;;;;;;13.27;100.00;99321.19;1745695;80;21508;-70
2022/08/31 03:38:02;;;;;;;13.75;7.65;;;;;;;13.35;100.00;99322.49;1749389;82;21120;-69
2022/08/31 03:40:29;;;;;;;9.58;8.03;;;;;;;13.43;100.00;99319.23;1742306;80;20932;-69
2022/08/31 03:42:59;;;;;;;10.40;7.72;;;;;;;13.54;100.00;99322.67;1747567;80;20952;-68
2022/08/31 03:45:27;;;;;;;8.93;7.67;;;;;;;13.62;100.00;99317.50;1747801;80;20995;-70
2022/08/31 03:47:54;;;;;;;11.73;8.10;;;;;;;13.70;100.00;99325.00;1735867;82;20996;-69
2022/08/31 03:50:21;;;;;;;8.95;7.83;;;;;;;13.79;100.00;99322.52;1748720;81;21329;-69
2022/08/31 03:52:54;;;;;;;12.58;7.78;;;;;;;13.86;100.00;99322.98;1746032;81;20868;-70
2022/08/31 03:55:22;;;;;;;18.35;9.30;;;;;;;13.93;100.00;99330.22;1742071;81;20994;-70
2022/08/31 03:57:50;;;;;;;11.75;8.10;;;;;;;14.06;100.00;99333.36;1747070;80;20967;-70
2022/08/31 04:00:18;;;;;;;11.12;8.68;;;;;;;14.16;100.00;99323.86;1752969;81;20813;-70
2022/08/31 04:02:46;;;;;;;14.83;8.23;;;;;;;14.23;100.00;99327.56;1742729;81;21265;-69
2022/08/31 04:05:35;;;;;;;9.35;7.28;;;;;;;14.30;100.00;99330.19;1737184;80;20951;-70
2022/08/31 04:08:07;;;;;;;9.33;7.37;;;;;;;14.38;100.00;99332.84;1750237;81;20919;-70
2022/08/31 04:10:53;;;;;;;10.98;7.70;;;;;;;14.52;100.00;99332.42;1744695;80;20871;-70
2022/08/31 04:13:22;;;;;;;15.48;8.15;;;;;;;14.78;100.00;99330.30;1749585;81;20973;-69
2022/08/31 04:16:00;;;;;;;11.08;7.00;;;;;;;14.96;100.00;99332.00;1746969;80;21183;-69
2022/08/31 04:18:26;;;;;;;9.43;7.15;;;;;;;15.16;100.00;99331.77;1753171;81;20886;-69
2022/08/31 04:20:53;;;;;;;15.15;6.92;;;;;;;15.25;100.00;99333.27;1749930;80;20930;-70
2022/08/31 04:23:20;;;;;;;9.35;6.37;;;;;;;15.40;100.00;99330.36;1751312;80;21440;-70
2022/08/31 04:25:51;;;;;;;8.35;6.08;;;;;;;15.55;100.00;99327.99;1750752;80;21139;-70
2022/08/31 04:28:19;;;;;;;21.50;7.60;;;;;;;15.74;100.00;99328.59;1752597;80;22058;-70
2022/08/31 04:30:47;;;;;;;9.35;6.37;;;;;;;15.94;100.00;99329.62;1753296;81;20938;-70
2022/08/31 04:33:15;;;;;;;9.45;6.65;;;;;;;16.28;100.00;99336.66;1752510;81;20974;-70
2022/08/31 04:35:42;;;;;;;10.93;6.28;;;;;;;16.55;100.00;99335.12;1749845;80;20950;-69
2022/08/31 04:38:09;;;;;;;12.28;7.05;;;;;;;16.64;100.00;99334.13;1749212;80;21014;-70
2022/08/31 04:40:38;;;;;;;10.38;6.97;;;;;;;16.90;100.00;99348.05;1752316;81;21199;-70
2022/08/31 04:43:05;;;;;;;13.98;6.72;;;;;;;16.94;100.00;99341.47;1749936;80;20894;-71
2022/08/31 04:45:32;;;;;;;11.43;6.90;;;;;;;17.22;100.00;99341.45;1750823;78;20950;-70
2022/08/31 04:47:59;;;;;;;21.93;7.70;;;;;;;17.33;100.00;99346.92;1751478;80;20890;-71
2022/08/31 04:50:26;;;;;;;11.90;6.83;;;;;;;17.40;100.00;99343.25;1749516;80;20950;-70
2022/08/31 04:53:08;;;;;;;13.30;7.62;;;;;;;17.66;100.00;99344.03;1750678;80;22085;-70
2022/08/31 04:55:40;;;;;;;10.43;6.50;;;;;;;17.86;100.00;99350.94;1749866;81;20918;-70
2022/08/31 04:58:07;;;;;;;11.43;7.95;;;;;;;17.94;100.00;99353.73;1725116;80;20938;-71
2022/08/31 05:00:37;;;;;;;13.25;7.00;;;;;;;18.27;100.00;99348.62;1750769;80;20973;-71
2022/08/31 05:03:21;;;;;;;16.82;6.53;;;;;;;18.40;100.00;99347.76;1753382;80;20993;-71
2022/08/31 05:05:52;;;;;;;12.20;7.12;;;;;;;18.51;100.00;99344.20;1751858;81;21255;-70
2022/08/31 05:08:19;;;;;;;11.95;7.10;;;;;;;18.82;100.00;99347.76;1750577;81;20974;-70
2022/08/31 05:10:47;;;;;;;12.28;7.20;;;;;;;19.34;100.00;99355.84;1752295;80;20913;-70
2022/08/31 05:13:14;;;;;;;16.10;7.45;;;;;;;19.78;100.00;99355.38;1753415;80;28397;-70
2022/08/31 05:15:42;;;;;;;10.78;6.67;;;;;;;19.71;100.00;99359.94;1747574;80;21543;-70
2022/08/31 05:18:10;;;;;;;13.53;6.25;;;;;;;19.62;100.00;99354.47;1753244;81;21138;-71
2022/08/31 05:20:39;;;;;;;15.43;5.95;;;;;;;19.59;100.00;99352.36;1752810;81;20891;-71
2022/08/31 05:23:06;;;;;;;13.90;5.92;;;;;;;19.55;100.00;99357.39;1753490;81;20868;-71
2022/08/31 05:25:33;;;;;;;12.90;8.78;;;;;;;19.72;100.00;99370.26;1747381;80;20920;-71
2022/08/31 05:28:00;;;;;;;8.15;5.10;;;;;;;20.05;100.00;99365.95;1747448;80;20958;-71
2022/08/31 05:30:27;;;;;;;13.18;5.40;;;;;;;20.35;100.00;99364.71;1753149;81;21273;-73
2022/08/31 05:32:55;;;;;;;22.05;5.65;;;;;;;20.58;100.00;99365.35;1746793;80;20939;-72
2022/08/31 05:35:22;;;;;;;8.80;4.78;;;;;;;20.43;100.00;99361.19;1747873;80;20993;-71
2022/08/31 05:37:50;;;;;;;8.55;5.33;;;;;;;20.47;100.00;99368.94;1753273;80;20875;-72
2022/08/31 05:40:18;;;;;;;9.78;5.17;;;;;;;20.88;100.00;99367.57;1753161;81;21513;-72
2022/08/31 05:42:45;;;;;;;9.05;5.35;;;;;;;20.87;100.00;99370.62;1734539;80;21189;-71
2022/08/31 05:45:13;;;;;;;6.47;5.83;;;;;;;20.76;100.00;99375.64;1746798;80;21482;-70
2022/08/31 05:47:40;;;;;;;8.48;5.60;;;;;;;20.13;100.00;99370.58;1748352;80;20891;-71
2022/08/31 05:50:09;;;;;;;7.53;5.12;;;;;;;19.74;100.00;99368.81;1719337;81;20911;-72
2022/08/31 05:52:38;;;;;;;18.12;5.67;;;;;;;19.72;100.00;99371.08;1725293;81;20982;-73
2022/08/31 05:55:08;;;;;;;13.35;4.95;;;;;;;20.02;100.00;99378.06;1753062;81;21260;-71
2022/08/31 05:57:37;;;;;;;15.20;5.85;;;;;;;20.44;100.00;99375.61;1731974;81;21500;-72
2022/08/31 06:00:07;;;;;;;8.60;5.05;;;;;;;20.64;100.00;99379.60;1747994;80;20934;-71
2022/08/31 06:02:38;;;;;;;6.40;4.97;;;;;;;21.24;100.00;99382.67;1746485;81;20972;-72
2022/08/31 06:05:07;;;;;;;6.37;4.08;;;;;;;21.29;100.00;99377.56;1751286;80;20970;-71
2022/08/31 06:07:35;;;;;;;7.47;4.45;;;;;;;21.58;100.00;99389.07;1748783;82;21122;-74
2022/08/31 06:10:06;;;;;;;7.42;4.40;;;;;;;21.31;100.00;99385.69;1746981;80;20944;-72
2022/08/31 06:12:36;;;;;;;7.28;4.03;;;;;;;20.84;100.00;99380.25;1742057;80;20918;-72
2022/08/31 06:15:04;;;;;;;6.12;4.20;;;;;;;21.01;100.00;99380.75;1750542;80;20942;-71
2022/08/31 06:17:32;;;;;;;6.50;3.98;;;;;;;21.79;100.00;99390.47;1752864;80;21017;-72
2022/08/31 06:20:03;;;;;;;8.33;4.12;;;;;;;22.10;100.00;99394.17;1750773;81;21153;-71
2022/08/31 06:22:31;;;;;;;7.28;3.90;;;;;;;21.75;100.00;99392.26;1750588;80;20881;-73
2022/08/31 06:24:58;;;;;;;6.08;4.00;;;;;;;21.72;100.00;99388.26;1728846;81;20929;-72
2022/08/31 06:27:26;;;;;;;10.82;5.12;;;;;;;21.66;100.00;99399.16;1751261;80;20938;-71
2022/08/31 06:29:56;;;;;;;5.50;3.42;;;;;;;21.60;100.00;99397.73;1733394;80;20957;-71
2022/08/31 06:32:25;;;;;;;4.85;3.65;;;;;;;21.96;100.00;99401.27;1702005;81;21136;-73
2022/08/31 06:34:56;;;;;;;12.58;3.67;;;;;;;22.25;100.00;99398.26;1752616;81;20902;-70
2022/08/31 06:37:24;;;;;;;6.90;4.15;;;;;;;22.07;100.00;99400.29;1748915;80;20922;-71
2022/08/31 06:40:11;;;;;;;6.22;3.72;;;;;;;21.53;100.00;99400.98;1753408;81;21464;-72
2022/08/31 06:42:42;;;;;;;19.67;4.25;;;;;;;20.99;100.00;99399.37;1750016;81;21555;-72
2022/08/31 06:45:11;;;;;;;4.53;3.60;;;;;;;20.72;100.00;99397.29;1749431;80;21176;-71
2022/08/31 06:47:43;;;;;;;7.12;4.37;;;;;;;20.57;100.00;99391.56;1750549;80;21611;-72
2022/08/31 06:50:12;;;;;;;8.68;4.45;;;;;;;20.45;100.00;99393.56;1750817;80;21036;-71
2022/08/31 06:52:39;;;;;;;11.38;4.03;;;;;;;20.91;100.00;99394.77;1751515;80;21473;-71
2022/08/31 06:55:09;;;;;;;19.70;5.33;;;;;;;21.73;100.00;99396.70;1749561;80;20890;-72
2022/08/31 06:57:54;;;;;;;6.65;3.83;;;;;;;22.12;100.00;99393.28;1749595;80;21153;-72
2022/08/31 07:00:26;;;;;;;7.10;3.58;;;;;;;21.98;100.00;99392.75;1751502;81;20917;-72
2022/08/31 07:03:31;;;;;;;5.78;3.75;;;;;;;21.69;100.00;99394.39;1751993;81;21507;-71
2022/08/31 07:05:52;;;;;;;7.30;3.95;;;;;;;21.47;100.00;99394.13;1748140;80;20934;-71
2022/08/31 07:08:20;;;;;;;5.77;3.80;;;;;;;21.23;100.00;99394.70;1749693;80;21448;-72
2022/08/31 07:10:47;;;;;;;4.53;3.20;;;;;;;20.93;100.00;99391.15;1752507;80;21602;-71
2022/08/31 07:13:14;;;;;;;3.35;2.90;;;;;;;20.75;100.00;99393.94;1746646;80;20903;-71
2022/08/31 07:15:41;;;;;;;5.58;2.98;;;;;;;20.60;100.00;99399.09;1753306;81;20951;-71
2022/08/31 07:18:09;;;;;;;8.25;3.30;;;;;;;20.68;100.00;99394.20;1747003;80;20931;-71
2022/08/31 07:20:36;;;;;;;8.03;4.08;;;;;;;20.73;100.00;99388.56;1729826;82;21047;-71
2022/08/31 07:23:04;;;;;;;14.50;3.77;;;;;;;21.00;100.00;99384.63;1743029;80;21269;-71
2022/08/31 07:25:38;;;;;;;12.60;3.65;;;;;;;21.08;100.00;99387.08;1752912;80;20903;-72
2022/08/31 07:28:09;;;;;;;12.17;3.00;;;;;;;21.22;100.00;99387.66;1738302;80;20991;-77
2022/08/31 07:30:41;;;;;;;8.10;3.77;;;;;;;21.50;100.00;99386.63;1745824;80;20929;-72
2022/08/31 07:33:06;;;;;;;6.55;3.12;;;;;;;21.77;100.00;99395.46;1746344;81;20832;-72
2022/08/31 07:35:34;;;;;;;10.82;3.72;;;;;;;21.73;100.00;99393.97;1745156;81;21153;-71
2022/08/31 07:43:38;;;;;;;12.80;5.08;;;;;;;22.49;100.00;99403.02;1749030;81;20927;-71
2022/08/31 07:46:05;;;;;;;3.95;3.25;;;;;;;22.47;100.00;99405.29;1741236;80;21440;-72
2022/08/31 07:48:34;;;;;;;3.27;3.00;;;;;;;22.95;100.00;99401.63;1747970;81;21213;-71
2022/08/31 07:51:05;;;;;;;9.08;3.02;;;;;;;23.04;100.00;99400.42;1746971;81;20983;-71
2022/08/31 07:53:40;;;;;;;5.90;2.80;;;;;;;22.72;100.00;99401.25;1743734;81;20884;-71
2022/08/31 07:56:05;;;;;;;9.88;2.80;;;;;;;23.02;100.00;99396.42;1742120;81;20970;-72
2022/08/31 07:58:39;;;;;;;7.28;2.80;;;;;;;23.38;100.00;99402.48;1747834;81;20951;-71
2022/08/31 08:01:06;;;;;;;5.35;2.62;;;;;;;23.38;100.00;99407.17;1743834;81;21492;-71
2022/08/31 08:03:33;;;;;;;5.87;2.67;;;;;;;23.40;99.27;99402.95;1747870;82;20992;-70
2022/08/31 08:06:18;;;;;;;4.72;2.90;;;;;;;23.26;97.93;99397.80;1745964;82;20878;-72
2022/08/31 08:09:04;;;;;;;3.67;2.98;;;;;;;22.94;99.08;99400.05;1748482;81;20892;-73
2022/08/31 08:11:27;;;;;;;7.87;3.25;;;;;;;22.62;100.00;99396.44;1751670;79;20907;-73
2022/08/31 08:13:56;;;;;;;3.92;3.05;;;;;;;22.40;100.00;99400.36;1730232;81;21563;-73
2022/08/31 08:16:31;;;;;;;4.17;2.87;;;;;;;22.39;100.00;99389.20;1741671;81;20914;-72
2022/08/31 08:19:08;;;;;;;6.28;2.80;;;;;;;22.19;100.00;99393.52;1677586;83;20906;-71
2022/08/31 08:21:36;;;;;;;5.58;3.83;;;;;;;22.01;100.00;99392.07;1722789;83;20989;-71
2022/08/31 08:24:05;;;;;;;6.10;3.60;;;;;;;21.96;100.00;99393.07;1731726;81;21029;-72
2022/08/31 08:26:50;;;;;;;5.72;3.10;;;;;;;21.97;100.00;99395.23;1697189;84;21300;-71
2022/08/31 08:29:19;;;;;;;9.18;3.00;;;;;;;21.86;100.00;99388.59;1713662;81;20866;-72
2022/08/31 08:31:52;;;;;;;5.85;3.00;;;;;;;21.89;100.00;99387.34;1726038;81;21507;-71
2022/08/31 08:34:16;;;;;;;4.08;3.05;;;;;;;21.72;100.00;99387.47;1725952;81;20985;-72
2022/08/31 08:36:43;;;;;;;9.28;4.92;;;;;;;21.71;100.00;99385.31;1748133;81;22203;-72
2022/08/31 08:39:11;;;;;;;12.68;3.85;;;;;;;21.74;100.00;99390.67;1731659;81;21167;-72
2022/08/31 08:41:40;;;;;;;8.48;2.50;;;;;;;22.16;100.00;99385.20;1731763;81;21043;-74
2022/08/31 08:44:11;;;;;;;7.47;3.92;;;;;;;22.33;100.00;99381.54;1732745;81;21442;-72
2022/08/31 08:46:47;;;;;;;9.38;3.70;;;;;;;22.27;100.00;99380.95;1731060;81;21429;-73
2022/08/31 08:49:45;;;;;;;8.78;3.22;;;;;;;22.36;100.00;99385.75;1726950;81;20883;-73
2022/08/31 08:52:26;;;;;;;6.92;2.92;;;;;;;22.18;100.00;99370.63;1722513;81;21189;-74
2022/08/31 08:54:57;;;;;;;4.40;3.40;;;;;;;21.80;100.00;99390.69;1722648;83;21461;-73
2022/08/31 08:57:34;;;;;;;4.72;3.20;;;;;;;21.45;100.00;99385.47;1722614;83;20939;-70
2022/08/31 09:00:18;;;;;;;5.37;2.92;;;;;;;21.37;100.00;99386.30;1722937;83;20931;-72
2022/08/31 09:03:02;;;;;;;3.98;3.10;;;;;;;21.39;100.00;99394.42;1729818;81;20890;-72
2022/08/31 09:06:10;;;;;;;3.72;3.10;;;;;;;21.37;100.00;99390.39;1720225;81;21438;-72
2022/08/31 09:09:16;;;;;;;6.42;3.12;;;;;;;21.43;100.00;99388.29;1722252;82;20940;-73
2022/08/31 09:12:21;;;;;;;4.95;3.15;;;;;;;21.44;100.00;99394.00;1745515;81;20918;-74
2022/08/31 09:15:00;;;;;;;4.62;3.08;;;;;;;21.42;100.00;99394.32;1712582;83;20901;-74
2022/08/31 09:17:55;;;;;;;5.67;2.70;;;;;;;21.53;100.00;99399.62;1708752;83;20945;-74
2022/08/31 09:20:22;;;;;;;3.65;2.70;;;;;;;21.59;100.00;99396.95;1706076;83;21173;-71
2022/08/31 09:22:54;;;;;;;6.53;3.05;;;;;;;21.76;100.00;99402.86;1705986;83;21534;-72
2022/08/31 09:25:32;;;;;;;14.43;3.20;;;;;;;21.73;100.00;99393.97;1691438;83;20940;-73
2022/08/31 09:28:06;;;;;;;4.28;2.30;;;;;;;21.76;100.00;99389.20;1695871;84;20909;-72
2022/08/31 09:30:52;;;;;;;2.70;2.50;;;;;;;21.89;100.00;99392.80;1706249;83;20944;-74
2022/08/31 09:33:31;;;;;;;3.27;2.15;;;;;;;22.05;99.53;99399.27;1679059;83;21865;-69
2022/08/31 09:36:17;;;;;;;4.20;2.45;;;;;;;22.23;93.89;99390.95;1697419;84;21007;-72
2022/08/31 09:38:45;;;;;;;4.47;2.30;;;;;;;22.67;90.07;99388.59;1705977;84;21037;-72
2022/08/31 09:41:30;;;;;;;2.90;2.40;;;;;;;23.31;83.71;99404.42;1706002;83;21000;-71
2022/08/31 09:44:22;;;;;;;3.75;1.90;;;;;;;23.91;74.08;99397.05;1713594;83;20946;-71
2022/08/31 09:46:52;;;;;;;6.92;2.33;;;;;;;23.85;70.62;99399.25;1711333;83;21265;-72
2022/08/31 09:49:35;;;;;;;4.62;2.40;;;;;;;23.47;71.77;99395.50;1706081;84;20913;-73
2022/08/31 09:55:17;;;;;;;4.95;2.12;;;;;;;23.14;74.82;99387.42;1687657;83;20873;-71
2022/08/31 10:01:54;;;;;;;3.98;1.87;;;;;;;24.31;68.11;99396.25;1727286;81;20997;-72
2022/08/31 10:04:35;;;;;;;3.67;2.08;;;;;;;24.67;61.75;99393.94;1761161;81;20931;-71
2022/08/31 10:07:40;;;;;;;5.37;2.95;;;;;;;24.79;62.35;99393.03;1750930;81;21064;-71
2022/08/31 10:10:17;;;;;;;2.27;1.80;;;;;;;24.99;60.15;99389.84;1745602;81;21003;-72
2022/08/31 10:13:01;;;;;;;3.90;2.17;;;;;;;25.02;58.84;99395.41;1727187;82;21025;-70
2022/08/31 10:15:56;;;;;;;2.55;2.20;;;;;;;25.40;58.22;99393.18;1681340;84;21280;-71
2022/08/31 10:18:49;;;;;;;4.08;2.10;;;;;;;25.50;56.33;99404.20;1684847;84;21002;-71
2022/08/31 10:21:28;;;;;;;2.33;2.00;;;;;;;25.62;55.79;99377.98;1730297;81;20895;-72
2022/08/31 10:24:32;;;;;;;3.25;2.12;;;;;;;25.14;55.94;99394.52;1729069;80;20979;-72
2022/08/31 10:27:10;;;;;;;6.58;2.30;;;;;;;24.67;58.04;99392.56;1726986;81;20994;-69
2022/08/31 10:29:55;;;;;;;5.03;2.72;;;;;;;24.77;58.44;99396.16;1669062;84;21165;-71
2022/08/31 10:32:42;;;;;;;7.47;2.50;;;;;;;25.40;57.48;99391.23;1703971;82;21246;-71
2022/08/31 10:35:21;;;;;;;6.35;3.10;;;;;;;25.89;55.77;99389.98;1702316;82;20955;-73
2022/08/31 10:38:24;;;;;;;5.30;1.80;;;;;;;25.69;53.23;99404.83;1705751;83;21006;-71
2022/08/31 10:40:59;;;;;;;4.58;1.60;;;;;;;24.99;52.76;99394.75;1649233;85;21423;-73
2022/08/31 10:43:37;;;;;;;4.75;1.82;;;;;;;24.65;52.83;99400.92;1646156;86;22156;-75
2022/08/31 10:46:04;;;;;;;2.62;1.52;;;;;;;24.54;53.45;99389.06;1677031;84;21088;-73
2022/08/31 10:48:32;;;;;;;2.50;1.50;;;;;;;24.25;53.86;99397.05;1646919;85;21032;-69
2022/08/31 10:51:29;;;;;;;1.57;1.47;;;;;;;24.20;54.50;99397.89;1674768;84;21072;-69
2022/08/31 10:54:20;;;;;;;;;;;;;;;24.11;54.99;99393.94;1672548;83;20909;-71
2022/08/31 10:57:10;;;;;;;2.50;1.82;;;;;;;24.06;55.51;99388.12;1676062;84;20590;-69
2022/08/31 10:59:48;;;;;;;2.98;1.80;;;;;;;24.32;55.55;99392.35;1677858;84;21116;-70
2022/08/31 11:03:03;;;;;;;3.12;1.72;;;;;;;24.95;54.71;99380.70;1672839;84;21045;-70
2022/08/31 11:05:59;;;;;;;5.12;1.77;;;;;;;25.58;54.03;99381.24;1672753;83;20874;-72
2022/08/31 11:08:52;;;;;;;5.72;1.55;;;;;;;25.36;52.90;99379.96;1687712;83;20989;-72
2022/08/31 11:11:46;;;;;;;3.25;2.20;;;;;;;25.18;52.58;99376.77;1678028;84;21174;-75
2022/08/31 11:14:48;;;;;;;7.92;4.60;;;;;;;25.11;52.91;99362.84;1665968;83;20889;-71
2022/08/31 11:17:57;;;;;;;9.65;2.40;;;;;;;25.57;51.60;99378.26;1673699;83;21017;-72
2022/08/31 11:20:39;;;;;;;2.65;1.67;;;;;;;26.05;50.80;99376.18;1665213;84;20972;-70
2022/08/31 11:23:51;;;;;;;3.50;1.62;;;;;;;26.15;49.24;99372.84;1673978;84;21000;-75
2022/08/31 11:27:00;;;;;;;2.67;1.52;;;;;;;25.76;50.31;99374.75;1656973;84;21873;-71
2022/08/31 11:30:07;;;;;;;2.30;1.42;;;;;;;25.61;51.86;99379.94;1659871;85;21079;-71
2022/08/31 11:32:44;;;;;;;10.63;2.10;;;;;;;26.08;50.20;99349.32;1567998;90;21071;-74
2022/08/31 11:35:14;;;;;;;4.83;1.55;;;;;;;26.18;50.76;99378.98;1559057;89;21000;-72
2022/08/31 11:37:51;;;;;;;5.97;1.70;;;;;;;25.52;50.23;99364.80;1552263;89;21473;-71
2022/08/31 11:40:42;;;;;;;1.70;1.57;;;;;;;25.15;51.18;99359.03;1555969;89;21255;-73
2022/08/31 11:43:35;;;;;;;6.00;1.42;;;;;;;24.87;51.60;99359.15;1594512;88;21107;-73
2022/08/31 11:46:26;;;;;;;1.67;1.50;;;;;;;24.65;52.30;99363.88;1596849;88;20982;-72
2022/08/31 11:48:57;;;;;;;1.57;1.40;;;;;;;24.49;51.45;99355.03;1593570;88;21079;-73
2022/08/31 11:51:41;;;;;;;2.90;1.55;;;;;;;24.53;52.34;99344.17;1600433;89;21079;-75
2022/08/31 11:54:26;;;;;;;1.85;1.57;;;;;;;25.02;53.31;99348.73;1600932;88;21565;-74
2022/08/31 11:56:55;;;;;;;1.65;1.30;;;;;;;25.36;50.68;99349.75;1595925;88;21063;-74
2022/08/31 11:59:32;;;;;;;1.50;1.40;;;;;;;25.35;51.10;99342.05;1606490;88;21039;-72
2022/08/31 12:02:21;;;;;;;3.27;1.45;;;;;;;25.90;49.45;99342.69;1619960;87;21097;-74
2022/08/31 12:05:01;;;;;;;3.40;1.40;;;;;;;25.94;48.51;99343.53;1628312;86;20957;-76
2022/08/31 12:07:42;;;;;;;2.98;1.67;;;;;;;25.47;47.31;99345.85;1686834;84;21219;-73
2022/08/31 12:10:24;;;;;;;2.67;1.42;;;;;;;25.22;48.82;99338.63;1684453;84;21092;-75